Terminal Aerodrome Forecast
Issued by NWS Jackson, MS

Home | Current Version | Previous Version | Text Only | Print | Product List | Glossary On
Versions: 1 2 3 4 5 6 7 8 9 10 11 12 13 14 15 16 17 18
000
FTUS44 KMEG 292324
TAFTUP
TAF
KTUP 292324Z 3000/3024 18007KT P6SM VCSH BKN035
     FM300100 16007KT P6SM SCT040 BKN150
     FM301000 18007KT P6SM SCT006 OVC015
      TEMPO 3010/3014 OVC006
     FM301600 22012G20KT P6SM VCTS SCT015 BKN025CB
      TEMPO 3018/3022 2SM TSRA OVC008CB=

USA.gov is the U.S. government's official web portal to all federal, state and local government web resources and services.